sensor_id;sensor_type;location;lat;lon;timestamp;pressure;altitude;pressure_sealevel;temperature;humidity
76794;BME280;65745;50.278;18.192;2023-05-28T00:00:26;100221.44;;;9.56;65.04
76794;BME280;65745;50.278;18.192;2023-05-28T00:03:19;100219.53;;;9.45;65.23
76794;BME280;65745;50.278;18.192;2023-05-28T00:05:51;100221.84;;;9.41;65.09
76794;BME280;65745;50.278;18.192;2023-05-28T00:08:24;100217.35;;;9.46;64.95
76794;BME280;65745;50.278;18.192;2023-05-28T00:10:56;100211.62;;;9.39;65.93
76794;BME280;65745;50.278;18.192;2023-05-28T00:13:31;100209.63;;;9.29;65.72
76794;BME280;65745;50.278;18.192;2023-05-28T00:16:03;100211.36;;;9.24;67.92
76794;BME280;65745;50.278;18.192;2023-05-28T00:18:35;100209.50;;;9.20;66.71
76794;BME280;65745;50.278;18.192;2023-05-28T00:21:07;100208.89;;;9.17;66.91
76794;BME280;65745;50.278;18.192;2023-05-28T00:23:39;100205.92;;;9.09;67.71
76794;BME280;65745;50.278;18.192;2023-05-28T00:26:12;100203.11;;;9.07;66.18
76794;BME280;65745;50.278;18.192;2023-05-28T00:28:45;100199.19;;;9.08;65.58
76794;BME280;65745;50.278;18.192;2023-05-28T00:31:18;100201.79;;;9.09;66.25
76794;BME280;65745;50.278;18.192;2023-05-28T00:33:50;100199.52;;;9.02;68.30
76794;BME280;65745;50.278;18.192;2023-05-28T00:36:22;100196.52;;;9.00;66.58
76794;BME280;65745;50.278;18.192;2023-05-28T00:38:54;100196.69;;;9.00;67.26
76794;BME280;65745;50.278;18.192;2023-05-28T00:41:27;100190.96;;;8.98;67.23
76794;BME280;65745;50.278;18.192;2023-05-28T00:44:00;100191.95;;;8.96;68.48
76794;BME280;65745;50.278;18.192;2023-05-28T00:46:34;100185.54;;;8.83;70.18
76794;BME280;65745;50.278;18.192;2023-05-28T00:49:06;100187.14;;;8.74;68.44
76794;BME280;65745;50.278;18.192;2023-05-28T00:51:40;100183.98;;;8.78;67.09
76794;BME280;65745;50.278;18.192;2023-05-28T00:54:12;100176.84;;;8.80;67.11
76794;BME280;65745;50.278;18.192;2023-05-28T00:56:45;100178.36;;;8.79;67.18
76794;BME280;65745;50.278;18.192;2023-05-28T00:59:18;100174.25;;;8.79;66.40
76794;BME280;65745;50.278;18.192;2023-05-28T01:01:50;100178.74;;;8.80;66.92
76794;BME280;65745;50.278;18.192;2023-05-28T01:04:22;100178.85;;;8.78;67.97
76794;BME280;65745;50.278;18.192;2023-05-28T01:06:55;100175.04;;;8.83;67.47
76794;BME280;65745;50.278;18.192;2023-05-28T01:09:28;100173.50;;;8.94;67.06
76794;BME280;65745;50.278;18.192;2023-05-28T01:12:02;100171.00;;;8.97;68.62
76794;BME280;65745;50.278;18.192;2023-05-28T01:14:35;100170.15;;;8.86;70.10
76794;BME280;65745;50.278;18.192;2023-05-28T01:17:09;100167.97;;;8.71;67.47
76794;BME280;65745;50.278;18.192;2023-05-28T01:19:42;100169.67;;;8.71;66.99
76794;BME280;65745;50.278;18.192;2023-05-28T01:22:20;100167.70;;;8.68;67.18
76794;BME280;65745;50.278;18.192;2023-05-28T01:24:53;100173.59;;;8.64;67.43
76794;BME280;65745;50.278;18.192;2023-05-28T01:27:26;100172.38;;;8.48;69.21
76794;BME280;65745;50.278;18.192;2023-05-28T01:29:59;100172.02;;;8.42;67.88
76794;BME280;65745;50.278;18.192;2023-05-28T01:32:32;100174.14;;;8.39;67.68
76794;BME280;65745;50.278;18.192;2023-05-28T01:35:05;100174.17;;;8.40;67.73
76794;BME280;65745;50.278;18.192;2023-05-28T01:37:41;100172.20;;;8.43;68.09
76794;BME280;65745;50.278;18.192;2023-05-28T01:40:16;100172.20;;;8.43;69.06
76794;BME280;65745;50.278;18.192;2023-05-28T01:42:50;100166.16;;;8.47;68.36
76794;BME280;65745;50.278;18.192;2023-05-28T01:45:26;100162.30;;;8.49;68.09
76794;BME280;65745;50.278;18.192;2023-05-28T01:48:00;100162.24;;;8.48;68.14
76794;BME280;65745;50.278;18.192;2023-05-28T01:50:32;100164.42;;;8.41;67.70
76794;BME280;65745;50.278;18.192;2023-05-28T01:53:04;100165.20;;;8.38;67.59
76794;BME280;65745;50.278;18.192;2023-05-28T01:55:37;100164.44;;;8.36;67.74
76794;BME280;65745;50.278;18.192;2023-05-28T01:58:10;100159.23;;;8.30;67.94
76794;BME280;65745;50.278;18.192;2023-05-28T02:00:46;100166.01;;;8.23;68.09
76794;BME280;65745;50.278;18.192;2023-05-28T02:03:21;100161.42;;;8.14;68.00
76794;BME280;65745;50.278;18.192;2023-05-28T02:05:54;100161.24;;;8.08;67.87
76794;BME280;65745;50.278;18.192;2023-05-28T02:08:26;100163.95;;;8.02;67.82
76794;BME280;65745;50.278;18.192;2023-05-28T02:10:59;100162.23;;;7.98;67.79
76794;BME280;65745;50.278;18.192;2023-05-28T02:13:31;100164.09;;;7.96;68.43
76794;BME280;65745;50.278;18.192;2023-05-28T02:16:03;100162.16;;;7.95;68.68
76794;BME280;65745;50.278;18.192;2023-05-28T02:18:37;100163.25;;;7.97;68.40
76794;BME280;65745;50.278;18.192;2023-05-28T02:21:11;100160.58;;;7.99;68.97
76794;BME280;65745;50.278;18.192;2023-05-28T02:23:46;100164.08;;;7.96;69.05
76794;BME280;65745;50.278;18.192;2023-05-28T02:26:20;100167.05;;;7.98;68.85
76794;BME280;65745;50.278;18.192;2023-05-28T02:28:53;100162.98;;;7.99;68.25
76794;BME280;65745;50.278;18.192;2023-05-28T02:31:25;100163.40;;;7.96;68.87
76794;BME280;65745;50.278;18.192;2023-05-28T02:33:57;100164.15;;;7.93;69.02
76794;BME280;65745;50.278;18.192;2023-05-28T02:36:29;100165.21;;;7.89;68.86
76794;BME280;65745;50.278;18.192;2023-05-28T02:39:04;100163.46;;;7.84;69.24
76794;BME280;65745;50.278;18.192;2023-05-28T02:41:37;100163.82;;;7.79;70.08
76794;BME280;65745;50.278;18.192;2023-05-28T02:44:10;100162.38;;;7.77;69.31
76794;BME280;65745;50.278;18.192;2023-05-28T02:46:42;100167.06;;;7.74;69.85
76794;BME280;65745;50.278;18.192;2023-05-28T02:49:14;100166.98;;;7.71;69.22
76794;BME280;65745;50.278;18.192;2023-05-28T02:51:46;100163.73;;;7.67;69.16
76794;BME280;65745;50.278;18.192;2023-05-28T02:54:31;100159.05;;;7.65;69.53
76794;BME280;65745;50.278;18.192;2023-05-28T02:57:03;100160.17;;;7.63;69.34
76794;BME280;65745;50.278;18.192;2023-05-28T02:59:36;100156.98;;;7.65;69.73
76794;BME280;65745;50.278;18.192;2023-05-28T03:02:08;100154.95;;;7.65;69.22
76794;BME280;65745;50.278;18.192;2023-05-28T03:04:41;100152.52;;;7.69;68.93
76794;BME280;65745;50.278;18.192;2023-05-28T03:07:14;100149.65;;;7.76;69.15
76794;BME280;65745;50.278;18.192;2023-05-28T03:09:46;100148.50;;;7.78;69.27
76794;BME280;65745;50.278;18.192;2023-05-28T03:12:20;100150.64;;;7.80;69.24
76794;BME280;65745;50.278;18.192;2023-05-28T03:14:52;100151.71;;;7.81;69.46
76794;BME280;65745;50.278;18.192;2023-05-28T03:17:24;100147.08;;;7.85;69.43
76794;BME280;65745;50.278;18.192;2023-05-28T03:19:57;100147.38;;;7.84;69.19
76794;BME280;65745;50.278;18.192;2023-05-28T03:22:29;100151.10;;;7.87;68.78
76794;BME280;65745;50.278;18.192;2023-05-28T03:25:02;100152.30;;;7.88;69.19
76794;BME280;65745;50.278;18.192;2023-05-28T03:27:34;100153.68;;;7.84;69.80
76794;BME280;65745;50.278;18.192;2023-05-28T03:30:08;100152.73;;;7.85;69.34
76794;BME280;65745;50.278;18.192;2023-05-28T03:32:51;100153.75;;;7.90;69.46
76794;BME280;65745;50.278;18.192;2023-05-28T03:35:23;100156.52;;;7.86;70.05
76794;BME280;65745;50.278;18.192;2023-05-28T03:37:56;100158.02;;;7.79;70.99
76794;BME280;65745;50.278;18.192;2023-05-28T03:40:28;100155.90;;;7.83;69.49
76794;BME280;65745;50.278;18.192;2023-05-28T03:43:01;100155.75;;;7.84;69.94
76794;BME280;65745;50.278;18.192;2023-05-28T03:45:36;100152.98;;;7.92;68.63
76794;BME280;65745;50.278;18.192;2023-05-28T03:48:08;100155.64;;;7.95;70.52
76794;BME280;65745;50.278;18.192;2023-05-28T03:50:41;100155.89;;;7.92;70.27
76794;BME280;65745;50.278;18.192;2023-05-28T03:53:14;100153.00;;;7.93;71.14
76794;BME280;65745;50.278;18.192;2023-05-28T03:55:46;100149.77;;;7.99;69.71
76794;BME280;65745;50.278;18.192;2023-05-28T03:58:18;100149.73;;;8.08;68.98
76794;BME280;65745;50.278;18.192;2023-05-28T04:00:51;100150.10;;;8.19;68.81
76794;BME280;65745;50.278;18.192;2023-05-28T04:03:24;100153.04;;;8.29;69.36
76794;BME280;65745;50.278;18.192;2023-05-28T04:05:56;100153.81;;;8.31;68.96
76794;BME280;65745;50.278;18.192;2023-05-28T04:08:29;100151.64;;;8.38;69.18
76794;BME280;65745;50.278;18.192;2023-05-28T04:11:01;100153.86;;;8.43;69.16
76794;BME280;65745;50.278;18.192;2023-05-28T04:13:33;100152.79;;;8.52;69.14
76794;BME280;65745;50.278;18.192;2023-05-28T04:16:06;100149.81;;;8.57;69.59
76794;BME280;65745;50.278;18.192;2023-05-28T04:18:40;100154.66;;;8.63;68.85
76794;BME280;65745;50.278;18.192;2023-05-28T04:21:12;100155.84;;;8.68;69.51
76794;BME280;65745;50.278;18.192;2023-05-28T04:23:44;100154.08;;;8.71;68.99
76794;BME280;65745;50.278;18.192;2023-05-28T04:26:16;100158.02;;;8.76;69.05
76794;BME280;65745;50.278;18.192;2023-05-28T04:28:51;100158.59;;;8.84;68.86
76794;BME280;65745;50.278;18.192;2023-05-28T04:31:24;100155.77;;;8.93;68.99
76794;BME280;65745;50.278;18.192;2023-05-28T04:33:58;100154.98;;;9.01;68.42
76794;BME280;65745;50.278;18.192;2023-05-28T04:36:30;100153.97;;;9.13;68.72
76794;BME280;65745;50.278;18.192;2023-05-28T04:39:04;100154.23;;;9.22;68.93
76794;BME280;65745;50.278;18.192;2023-05-28T04:41:37;100155.58;;;9.33;68.44
76794;BME280;65745;50.278;18.192;2023-05-28T04:44:10;100157.98;;;9.45;68.60
76794;BME280;65745;50.278;18.192;2023-05-28T04:46:46;100159.17;;;9.56;68.24
76794;BME280;65745;50.278;18.192;2023-05-28T04:49:19;100163.24;;;9.66;68.15
76794;BME280;65745;50.278;18.192;2023-05-28T04:51:51;100166.80;;;9.76;69.62
76794;BME280;65745;50.278;18.192;2023-05-28T04:54:23;100168.17;;;9.89;68.57
76794;BME280;65745;50.278;18.192;2023-05-28T04:56:57;100159.62;;;10.04;68.28
76794;BME280;65745;50.278;18.192;2023-05-28T04:59:29;100160.80;;;10.16;68.10
76794;BME280;65745;50.278;18.192;2023-05-28T05:02:03;100160.30;;;10.30;68.21
76794;BME280;65745;50.278;18.192;2023-05-28T05:04:35;100155.78;;;10.48;68.48
76794;BME280;65745;50.278;18.192;2023-05-28T05:07:08;100155.17;;;10.66;68.06
76794;BME280;65745;50.278;18.192;2023-05-28T05:09:40;100157.05;;;10.88;67.78
76794;BME280;65745;50.278;18.192;2023-05-28T05:12:13;100150.47;;;11.01;66.42
76794;BME280;65745;50.278;18.192;2023-05-28T05:14:45;100150.08;;;11.16;66.08
76794;BME280;65745;50.278;18.192;2023-05-28T05:17:18;100146.80;;;11.32;65.73
76794;BME280;65745;50.278;18.192;2023-05-28T05:19:50;100146.05;;;11.45;65.54
76794;BME280;65745;50.278;18.192;2023-05-28T05:22:23;100149.30;;;11.61;65.51
76794;BME280;65745;50.278;18.192;2023-05-28T05:24:55;100151.14;;;11.74;65.02
76794;BME280;65745;50.278;18.192;2023-05-28T05:27:28;100151.53;;;11.86;64.90
76794;BME280;65745;50.278;18.192;2023-05-28T05:30:00;100149.54;;;11.99;64.29
76794;BME280;65745;50.278;18.192;2023-05-28T05:32:33;100145.16;;;12.14;64.05
76794;BME280;65745;50.278;18.192;2023-05-28T05:35:06;100143.86;;;12.30;63.62
76794;BME280;65745;50.278;18.192;2023-05-28T05:37:57;100141.92;;;12.48;63.39
76794;BME280;65745;50.278;18.192;2023-05-28T05:40:49;100145.80;;;12.64;63.12
76794;BME280;65745;50.278;18.192;2023-05-28T05:43:47;100144.65;;;12.79;62.54
76794;BME280;65745;50.278;18.192;2023-05-28T05:46:19;100149.33;;;12.91;62.07
76794;BME280;65745;50.278;18.192;2023-05-28T05:48:51;100144.63;;;13.03;61.31
76794;BME280;65745;50.278;18.192;2023-05-28T05:51:24;100145.21;;;13.17;61.33
76794;BME280;65745;50.278;18.192;2023-05-28T05:53:56;100141.60;;;13.32;60.72
76794;BME280;65745;50.278;18.192;2023-05-28T05:56:28;100140.93;;;13.47;60.25
76794;BME280;65745;50.278;18.192;2023-05-28T05:59:00;100140.76;;;13.63;59.75
76794;BME280;65745;50.278;18.192;2023-05-28T06:01:33;100138.17;;;13.80;59.45
76794;BME280;65745;50.278;18.192;2023-05-28T06:04:06;100133.01;;;13.99;58.61
76794;BME280;65745;50.278;18.192;2023-05-28T06:06:44;100131.42;;;14.15;58.01
76794;BME280;65745;50.278;18.192;2023-05-28T06:09:37;100134.38;;;14.34;57.67
76794;BME280;65745;50.278;18.192;2023-05-28T06:12:16;100132.30;;;14.53;57.28
76794;BME280;65745;50.278;18.192;2023-05-28T06:14:49;100135.20;;;14.70;56.60
76794;BME280;65745;50.278;18.192;2023-05-28T06:17:21;100136.70;;;14.87;56.78
76794;BME280;65745;50.278;18.192;2023-05-28T06:19:54;100131.73;;;14.99;55.80
76794;BME280;65745;50.278;18.192;2023-05-28T06:22:26;100136.83;;;15.08;55.14
76794;BME280;65745;50.278;18.192;2023-05-28T06:24:58;100137.75;;;15.20;55.52
76794;BME280;65745;50.278;18.192;2023-05-28T06:27:31;100140.77;;;15.36;55.71
76794;BME280;65745;50.278;18.192;2023-05-28T06:30:05;100140.87;;;15.53;54.78
76794;BME280;65745;50.278;18.192;2023-05-28T06:32:37;100137.29;;;15.68;54.98
76794;BME280;65745;50.278;18.192;2023-05-28T06:35:10;100138.38;;;15.86;54.33
76794;BME280;65745;50.278;18.192;2023-05-28T06:37:42;100143.27;;;16.03;54.41
76794;BME280;65745;50.278;18.192;2023-05-28T06:40:15;100139.13;;;16.21;54.02
76794;BME280;65745;50.278;18.192;2023-05-28T06:42:47;100144.17;;;16.40;53.38
76794;BME280;65745;50.278;18.192;2023-05-28T06:45:42;100138.79;;;16.55;51.72
76794;BME280;65745;50.278;18.192;2023-05-28T06:48:15;100137.94;;;16.64;52.43
76794;BME280;65745;50.278;18.192;2023-05-28T06:50:48;100137.58;;;16.74;52.27
76794;BME280;65745;50.278;18.192;2023-05-28T06:53:20;100132.16;;;16.89;51.67
76794;BME280;65745;50.278;18.192;2023-05-28T06:55:52;100127.94;;;17.06;52.05
76794;BME280;65745;50.278;18.192;2023-05-28T06:58:43;100131.02;;;17.27;51.74
76794;BME280;65745;50.278;18.192;2023-05-28T07:01:34;100130.60;;;17.44;50.73
76794;BME280;65745;50.278;18.192;2023-05-28T07:04:11;100129.50;;;17.60;50.47
76794;BME280;65745;50.278;18.192;2023-05-28T07:06:47;100131.00;;;17.74;49.45
76794;BME280;65745;50.278;18.192;2023-05-28T07:09:27;100127.77;;;17.90;49.20
76794;BME280;65745;50.278;18.192;2023-05-28T07:12:00;100122.45;;;18.04;48.35
76794;BME280;65745;50.278;18.192;2023-05-28T07:14:35;100119.77;;;18.14;48.97
76794;BME280;65745;50.278;18.192;2023-05-28T07:17:10;100117.41;;;18.26;47.91
76794;BME280;65745;50.278;18.192;2023-05-28T07:19:43;100114.51;;;18.41;48.24
76794;BME280;65745;50.278;18.192;2023-05-28T07:22:17;100114.12;;;18.45;47.63
76794;BME280;65745;50.278;18.192;2023-05-28T07:24:50;100111.25;;;18.54;47.75
76794;BME280;65745;50.278;18.192;2023-05-28T07:27:22;100105.25;;;18.65;44.07
76794;BME280;65745;50.278;18.192;2023-05-28T07:29:55;100104.52;;;18.67;45.92
76794;BME280;65745;50.278;18.192;2023-05-28T07:32:29;100105.73;;;18.85;46.40
76794;BME280;65745;50.278;18.192;2023-05-28T07:35:01;100102.05;;;19.03;44.76
76794;BME280;65745;50.278;18.192;2023-05-28T07:37:35;100100.79;;;19.21;45.14
76794;BME280;65745;50.278;18.192;2023-05-28T07:40:10;100097.47;;;19.36;44.00
76794;BME280;65745;50.278;18.192;2023-05-28T07:42:44;100096.91;;;19.53;44.41
76794;BME280;65745;50.278;18.192;2023-05-28T07:45:20;100093.68;;;19.72;42.79
76794;BME280;65745;50.278;18.192;2023-05-28T07:47:52;100093.09;;;19.89;43.06
76794;BME280;65745;50.278;18.192;2023-05-28T07:50:55;100094.01;;;20.09;43.21
76794;BME280;65745;50.278;18.192;2023-05-28T07:53:41;100093.23;;;20.24;41.14
76794;BME280;65745;50.278;18.192;2023-05-28T07:56:20;100091.55;;;20.32;40.41
76794;BME280;65745;50.278;18.192;2023-05-28T07:58:54;100086.86;;;20.42;40.15
76794;BME280;65745;50.278;18.192;2023-05-28T08:01:27;100083.84;;;20.53;40.85
76794;BME280;65745;50.278;18.192;2023-05-28T08:04:00;100085.86;;;20.67;39.39
76794;BME280;65745;50.278;18.192;2023-05-28T08:06:37;100085.65;;;20.78;37.67
76794;BME280;65745;50.278;18.192;2023-05-28T08:09:13;100083.90;;;20.88;38.31
76794;BME280;65745;50.278;18.192;2023-05-28T08:11:50;100083.41;;;20.95;38.03
76794;BME280;65745;50.278;18.192;2023-05-28T08:14:23;100079.02;;;21.05;38.60
76794;BME280;65745;50.278;18.192;2023-05-28T08:16:57;100076.37;;;21.15;37.36
76794;BME280;65745;50.278;18.192;2023-05-28T08:19:48;100066.77;;;21.30;37.73
76794;BME280;65745;50.278;18.192;2023-05-28T08:22:58;100066.27;;;21.54;37.70
76794;BME280;65745;50.278;18.192;2023-05-28T08:25:30;100061.14;;;21.72;36.20
76794;BME280;65745;50.278;18.192;2023-05-28T08:28:08;100067.04;;;21.90;37.40
76794;BME280;65745;50.278;18.192;2023-05-28T08:30:41;100065.50;;;22.03;36.40
76794;BME280;65745;50.278;18.192;2023-05-28T08:33:20;100063.92;;;22.18;35.40
76794;BME280;65745;50.278;18.192;2023-05-28T08:35:53;100060.09;;;22.37;36.29
76794;BME280;65745;50.278;18.192;2023-05-28T08:38:26;100062.05;;;22.50;35.07
76794;BME280;65745;50.278;18.192;2023-05-28T08:41:00;100065.52;;;22.65;35.87
76794;BME280;65745;50.278;18.192;2023-05-28T08:43:33;100063.91;;;22.86;35.44
76794;BME280;65745;50.278;18.192;2023-05-28T08:46:06;100067.63;;;23.03;35.83
76794;BME280;65745;50.278;18.192;2023-05-28T08:48:43;100064.08;;;23.23;35.52
76794;BME280;65745;50.278;18.192;2023-05-28T08:51:17;100060.20;;;23.41;34.53
76794;BME280;65745;50.278;18.192;2023-05-28T08:53:53;100059.91;;;23.52;33.57
76794;BME280;65745;50.278;18.192;2023-05-28T08:56:29;100057.48;;;23.57;33.94
76794;BME280;65745;50.278;18.192;2023-05-28T08:59:02;100054.77;;;23.64;33.95
76794;BME280;65745;50.278;18.192;2023-05-28T09:01:37;100049.88;;;23.63;31.99
76794;BME280;65745;50.278;18.192;2023-05-28T09:04:13;100045.60;;;23.36;31.29
76794;BME280;65745;50.278;18.192;2023-05-28T09:06:47;100050.71;;;23.41;32.65
76794;BME280;65745;50.278;18.192;2023-05-28T09:09:27;100058.93;;;23.43;32.59
76794;BME280;65745;50.278;18.192;2023-05-28T09:12:04;100051.41;;;23.35;32.34
76794;BME280;65745;50.278;18.192;2023-05-28T09:14:40;100055.02;;;23.32;31.63
76794;BME280;65745;50.278;18.192;2023-05-28T09:17:14;100046.33;;;23.29;31.44
76794;BME280;65745;50.278;18.192;2023-05-28T09:19:52;100042.48;;;23.34;32.31
76794;BME280;65745;50.278;18.192;2023-05-28T09:22:25;100041.95;;;23.52;32.03
76794;BME280;65745;50.278;18.192;2023-05-28T09:25:20;100036.65;;;23.64;31.58
76794;BME280;65745;50.278;18.192;2023-05-28T09:28:05;100035.13;;;23.85;32.29
76794;BME280;65745;50.278;18.192;2023-05-28T09:30:37;100034.52;;;24.08;32.01
76794;BME280;65745;50.278;18.192;2023-05-28T09:33:10;100031.77;;;24.28;31.54
76794;BME280;65745;50.278;18.192;2023-05-28T09:35:43;100026.15;;;24.33;29.98
76794;BME280;65745;50.278;18.192;2023-05-28T09:38:15;100024.09;;;24.37;30.91
76794;BME280;65745;50.278;18.192;2023-05-28T09:40:47;100029.61;;;24.45;30.61
76794;BME280;65745;50.278;18.192;2023-05-28T09:43:28;100032.30;;;24.63;31.24
76794;BME280;65745;50.278;18.192;2023-05-28T09:46:09;100021.00;;;24.89;31.09
76794;BME280;65745;50.278;18.192;2023-05-28T09:48:41;100017.41;;;25.01;30.22
76794;BME280;65745;50.278;18.192;2023-05-28T09:51:15;100017.98;;;25.09;30.15
76794;BME280;65745;50.278;18.192;2023-05-28T09:53:48;100017.12;;;25.08;28.99
76794;BME280;65745;50.278;18.192;2023-05-28T09:56:22;100019.73;;;25.09;29.98
76794;BME280;65745;50.278;18.192;2023-05-28T09:58:58;100011.73;;;25.34;30.34
76794;BME280;65745;50.278;18.192;2023-05-28T10:01:36;100010.28;;;25.52;28.91
76794;BME280;65745;50.278;18.192;2023-05-28T10:04:14;100009.49;;;25.64;28.91
76794;BME280;65745;50.278;18.192;2023-05-28T10:06:48;100003.55;;;25.84;28.95
76794;BME280;65745;50.278;18.192;2023-05-28T10:09:22;100007.20;;;26.16;28.52
76794;BME280;65745;50.278;18.192;2023-05-28T10:12:07;100004.81;;;26.39;27.94
76794;BME280;65745;50.278;18.192;2023-05-28T10:14:40;100001.67;;;26.74;27.91
76794;BME280;65745;50.278;18.192;2023-05-28T10:17:14;100002.39;;;27.09;28.33
76794;BME280;65745;50.278;18.192;2023-05-28T10:19:48;100003.06;;;27.44;27.71
76794;BME280;65745;50.278;18.192;2023-05-28T10:22:21;100005.09;;;27.68;27.29
76794;BME280;65745;50.278;18.192;2023-05-28T10:24:54;99999.59;;;27.86;26.34
76794;BME280;65745;50.278;18.192;2023-05-28T10:27:32;100000.23;;;28.16;26.39
76794;BME280;65745;50.278;18.192;2023-05-28T10:30:06;99996.63;;;28.24;24.67
76794;BME280;65745;50.278;18.192;2023-05-28T10:32:41;99992.77;;;28.20;24.36
76794;BME280;65745;50.278;18.192;2023-05-28T10:35:14;99992.68;;;28.18;25.36
76794;BME280;65745;50.278;18.192;2023-05-28T10:37:47;99992.65;;;28.26;24.54
76794;BME280;65745;50.278;18.192;2023-05-28T10:40:24;99987.47;;;28.12;24.82
76794;BME280;65745;50.278;18.192;2023-05-28T10:42:57;99988.12;;;28.27;25.14
76794;BME280;65745;50.278;18.192;2023-05-28T10:45:38;99983.91;;;28.57;24.73
76794;BME280;65745;50.278;18.192;2023-05-28T10:48:16;99982.23;;;28.65;25.49
76794;BME280;65745;50.278;18.192;2023-05-28T10:50:59;99977.95;;;28.96;25.34
76794;BME280;65745;50.278;18.192;2023-05-28T10:53:31;99977.39;;;29.25;24.21
76794;BME280;65745;50.278;18.192;2023-05-28T10:56:04;99976.45;;;29.42;24.52
76794;BME280;65745;50.278;18.192;2023-05-28T10:58:36;99976.52;;;29.66;23.99
76794;BME280;65745;50.278;18.192;2023-05-28T11:01:20;99976.17;;;29.75;23.82
76794;BME280;65745;50.278;18.192;2023-05-28T11:03:55;99970.95;;;29.79;23.29
76794;BME280;65745;50.278;18.192;2023-05-28T11:06:27;99977.52;;;29.51;23.58
76794;BME280;65745;50.278;18.192;2023-05-28T11:08:59;99978.25;;;29.73;24.99
76794;BME280;65745;50.278;18.192;2023-05-28T11:11:34;99979.09;;;30.04;24.18
76794;BME280;65745;50.278;18.192;2023-05-28T11:14:10;99979.33;;;30.36;24.63
76794;BME280;65745;50.278;18.192;2023-05-28T11:16:47;99980.31;;;30.72;24.31
76794;BME280;65745;50.278;18.192;2023-05-28T11:19:19;99974.30;;;30.80;22.97
76794;BME280;65745;50.278;18.192;2023-05-28T11:21:52;99971.30;;;30.45;22.19
76794;BME280;65745;50.278;18.192;2023-05-28T11:24:26;99968.63;;;30.48;23.92
76794;BME280;65745;50.278;18.192;2023-05-28T11:26:59;99970.61;;;30.85;22.84
76794;BME280;65745;50.278;18.192;2023-05-28T11:29:32;99963.96;;;30.92;22.52
76794;BME280;65745;50.278;18.192;2023-05-28T11:32:06;99965.15;;;30.96;23.27
76794;BME280;65745;50.278;18.192;2023-05-28T11:34:39;99964.34;;;31.12;22.53
76794;BME280;65745;50.278;18.192;2023-05-28T11:37:12;99962.48;;;31.32;22.67
76794;BME280;65745;50.278;18.192;2023-05-28T11:39:52;99962.03;;;31.55;21.32
76794;BME280;65745;50.278;18.192;2023-05-28T11:42:26;99957.23;;;31.25;21.26
76794;BME280;65745;50.278;18.192;2023-05-28T11:44:59;99948.90;;;30.97;21.80
76794;BME280;65745;50.278;18.192;2023-05-28T11:47:33;99945.61;;;30.98;21.75
76794;BME280;65745;50.278;18.192;2023-05-28T11:50:10;99945.58;;;31.15;21.92
76794;BME280;65745;50.278;18.192;2023-05-28T11:52:43;99938.84;;;30.90;21.68
76794;BME280;65745;50.278;18.192;2023-05-28T11:55:17;99931.80;;;31.00;22.16
76794;BME280;65745;50.278;18.192;2023-05-28T11:57:54;99937.00;;;31.40;22.32
76794;BME280;65745;50.278;18.192;2023-05-28T12:00:32;99938.73;;;31.74;21.24
76794;BME280;65745;50.278;18.192;2023-05-28T12:03:06;99937.31;;;32.00;22.44
76794;BME280;65745;50.278;18.192;2023-05-28T12:05:42;99936.05;;;32.00;20.16
76794;BME280;65745;50.278;18.192;2023-05-28T12:08:19;99937.27;;;31.74;21.42
76794;BME280;65745;50.278;18.192;2023-05-28T12:10:51;99934.69;;;31.96;21.24
76794;BME280;65745;50.278;18.192;2023-05-28T12:13:23;99935.46;;;32.06;21.33
76794;BME280;65745;50.278;18.192;2023-05-28T12:16:11;99930.77;;;32.23;21.07
76794;BME280;65745;50.278;18.192;2023-05-28T12:18:44;99931.41;;;32.54;20.39
76794;BME280;65745;50.278;18.192;2023-05-28T12:21:17;99931.28;;;32.69;20.61
76794;BME280;65745;50.278;18.192;2023-05-28T12:23:51;99929.48;;;32.54;20.19
76794;BME280;65745;50.278;18.192;2023-05-28T12:26:25;99932.70;;;32.15;20.11
76794;BME280;65745;50.278;18.192;2023-05-28T12:28:58;99927.71;;;32.00;20.67
76794;BME280;65745;50.278;18.192;2023-05-28T12:31:31;99925.77;;;32.30;21.50
76794;BME280;65745;50.278;18.192;2023-05-28T12:34:03;99918.39;;;32.75;20.61
76794;BME280;65745;50.278;18.192;2023-05-28T12:36:36;99917.46;;;33.00;20.37
76794;BME280;65745;50.278;18.192;2023-05-28T12:39:09;99913.42;;;33.26;20.73
76794;BME280;65745;50.278;18.192;2023-05-28T12:41:41;99913.89;;;33.39;20.50
76794;BME280;65745;50.278;18.192;2023-05-28T12:44:13;99909.41;;;33.58;20.03
76794;BME280;65745;50.278;18.192;2023-05-28T12:46:47;99902.36;;;33.54;19.61
76794;BME280;65745;50.278;18.192;2023-05-28T12:49:21;99894.14;;;33.28;20.32
76794;BME280;65745;50.278;18.192;2023-05-28T12:51:53;99892.51;;;33.41;20.86
76794;BME280;65745;50.278;18.192;2023-05-28T12:54:25;99892.33;;;33.61;20.15
76794;BME280;65745;50.278;18.192;2023-05-28T12:57:01;99891.19;;;33.82;20.00
76794;BME280;65745;50.278;18.192;2023-05-28T12:59:34;99883.45;;;34.03;19.17
76794;BME280;65745;50.278;18.192;2023-05-28T13:02:07;99885.40;;;34.17;19.58
76794;BME280;65745;50.278;18.192;2023-05-28T13:04:39;99884.38;;;34.32;20.05
76794;BME280;65745;50.278;18.192;2023-05-28T13:07:12;99886.68;;;34.51;19.33
76794;BME280;65745;50.278;18.192;2023-05-28T13:09:44;99882.34;;;34.40;18.61
76794;BME280;65745;50.278;18.192;2023-05-28T13:12:16;99877.31;;;34.13;18.96
76794;BME280;65745;50.278;18.192;2023-05-28T13:14:48;99876.05;;;33.99;18.72
76794;BME280;65745;50.278;18.192;2023-05-28T13:17:21;99878.05;;;33.85;18.37
76794;BME280;65745;50.278;18.192;2023-05-28T13:19:53;99874.78;;;33.86;18.36
76794;BME280;65745;50.278;18.192;2023-05-28T13:22:26;99872.48;;;33.79;19.03